Time;durP1;ratioP1;P1;durP2;ratioP2;P2;SDS_P1;SDS_P2;PMS_P1;PMS_P2;Temp;Humidity;BMP_temperature;BMP_pressure;BME280_temperature;BME280_humidity;BME280_pressure;Samples;Min_cycle;Max_cycle;Signal;HPM_P1;HPM_P2
2022/09/20 00:01:13;;;;;;;2.97;1.60;;;;;;;6.29;100.00;100849.34;4995943;28;20037;-82
2022/09/20 00:03:45;;;;;;;2.20;1.30;;;;;;;6.24;100.00;100851.09;4992312;28;20048;-83
2022/09/20 00:06:14;;;;;;;1.20;1.10;;;;;;;6.22;100.00;100844.94;5011882;23;20046;-85
2022/09/20 00:08:41;;;;;;;2.43;1.33;;;;;;;6.24;100.00;100850.22;5009239;28;20099;-85
2022/09/20 00:11:10;;;;;;;2.63;1.20;;;;;;;6.28;100.00;100854.59;5006375;28;20766;-84
2022/09/20 00:13:38;;;;;;;1.97;1.10;;;;;;;6.23;100.00;100856.34;5015454;28;20030;-84
2022/09/20 00:16:06;;;;;;;3.33;1.23;;;;;;;6.26;100.00;100856.34;4988636;28;20031;-84
2022/09/20 00:18:33;;;;;;;1.57;1.37;;;;;;;6.20;100.00;100859.81;4973727;28;20050;-84
2022/09/20 00:20:59;;;;;;;1.33;1.00;;;;;;;6.25;100.00;100857.22;4987222;28;20042;-84
2022/09/20 00:23:26;;;;;;;2.90;1.20;;;;;;;6.15;100.00;100853.72;5010353;28;20049;-85
2022/09/20 00:25:57;;;;;;;3.73;1.10;;;;;;;6.18;100.00;100859.84;4978381;28;21017;-85
2022/09/20 00:28:25;;;;;;;1.47;1.03;;;;;;;6.11;100.00;100865.06;4996303;28;20570;-86
2022/09/20 00:30:53;;;;;;;1.70;0.93;;;;;;;6.08;100.00;100865.94;4995953;28;20045;-86
2022/09/20 00:33:21;;;;;;;1.67;1.30;;;;;;;6.05;100.00;100867.69;5008029;28;20034;-86
2022/09/20 00:35:47;;;;;;;2.10;1.20;;;;;;;6.01;100.00;100866.81;5011478;28;20042;-86
2022/09/20 00:38:14;;;;;;;2.93;1.10;;;;;;;6.02;100.00;100868.56;5006877;28;20041;-85
2022/09/20 00:40:42;;;;;;;4.00;1.20;;;;;;;5.98;100.00;100869.44;4971965;28;20046;-85
2022/09/20 00:43:14;;;;;;;1.40;1.27;;;;;;;6.05;100.00;100860.69;4980999;28;20078;-85
2022/09/20 00:45:43;;;;;;;2.37;1.00;;;;;;;5.98;100.00;100871.19;4994032;28;20030;-85
2022/09/20 00:48:23;;;;;;;2.87;1.10;;;;;;;5.94;100.00;100867.66;4971810;28;20050;-86
2022/09/20 00:50:53;;;;;;;2.00;0.90;;;;;;;5.85;100.00;100867.63;4994729;28;20046;-85
2022/09/20 00:53:25;;;;;;;1.57;1.00;;;;;;;5.92;100.00;100867.69;5003797;28;20062;-85
2022/09/20 00:55:55;;;;;;;1.33;1.00;;;;;;;5.87;100.00;100864.13;5010787;28;20414;-85
2022/09/20 00:58:24;;;;;;;4.50;1.30;;;;;;;5.89;100.00;100867.66;4988114;28;20046;-85
2022/09/20 01:00:53;;;;;;;3.50;1.23;;;;;;;5.80;100.00;100861.47;5007104;28;20077;-85
2022/09/20 01:03:21;;;;;;;1.27;1.00;;;;;;;5.81;100.00;100863.25;4997765;28;20067;-85
2022/09/20 01:05:52;;;;;;;1.63;1.30;;;;;;;5.74;100.00;100865.00;4961812;28;20046;-84
2022/09/20 01:08:19;;;;;;;2.47;1.00;;;;;;;5.71;100.00;100864.97;4984612;28;20034;-85
2022/09/20 01:10:46;;;;;;;2.63;1.00;;;;;;;5.68;100.00;100861.47;4973793;28;20095;-85
2022/09/20 01:13:13;;;;;;;1.40;1.10;;;;;;;5.67;100.00;100875.44;4973226;28;20078;-85
2022/09/20 01:15:41;;;;;;;1.17;0.90;;;;;;;5.62;100.00;100876.28;4989077;28;20447;-86
2022/09/20 01:18:08;;;;;;;1.90;1.00;;;;;;;5.61;100.00;100879.78;4990063;28;20041;-85
2022/09/20 01:20:37;;;;;;;3.47;1.10;;;;;;;5.61;100.00;100877.16;4972932;28;20048;-85
2022/09/20 01:23:10;;;;;;;0.93;0.83;;;;;;;5.61;100.00;100877.16;4965674;28;20052;-85
2022/09/20 01:26:06;;;;;;;1.23;1.00;;;;;;;5.63;100.00;100880.69;5002371;28;20041;-85
2022/09/20 01:28:33;;;;;;;2.37;1.10;;;;;;;5.60;100.00;100877.16;4983839;28;20046;-85
2022/09/20 01:31:25;;;;;;;1.13;0.80;;;;;;;5.58;100.00;100877.16;4987298;28;21854;-85
2022/09/20 01:34:00;;;;;;;1.23;0.93;;;;;;;5.62;100.00;100873.66;4997773;28;20042;-88
2022/09/20 01:36:45;;;;;;;3.27;1.00;;;;;;;5.57;100.00;100874.56;5001129;28;20042;-86
2022/09/20 01:39:28;;;;;;;1.53;1.03;;;;;;;5.55;100.00;100877.16;4989139;28;20053;-87
2022/09/20 01:42:01;;;;;;;1.53;1.13;;;;;;;5.58;100.00;100869.31;4973426;28;20050;-87
2022/09/20 01:44:35;;;;;;;4.70;1.73;;;;;;;5.69;100.00;100887.69;4994516;28;20045;-87
2022/09/20 01:47:17;;;;;;;1.50;1.13;;;;;;;5.56;100.00;100884.16;4974902;28;20060;-87
2022/09/20 01:49:54;;;;;;;5.13;1.73;;;;;;;5.58;100.00;100882.41;5026114;28;20048;-88
2022/09/20 01:52:34;;;;;;;2.00;1.00;;;;;;;5.52;100.00;100890.25;5000723;28;20042;-86
2022/09/20 01:55:44;;;;;;;1.70;1.00;;;;;;;5.46;100.00;100884.09;4974365;28;20046;-87
2022/09/20 01:58:50;;;;;;;1.50;1.00;;;;;;;5.45;100.00;100887.59;4998265;28;20768;-85
2022/09/20 02:02:02;;;;;;;2.25;1.10;;;;;;;5.41;100.00;100888.47;5017138;28;20037;-83
2022/09/20 02:04:49;;;;;;;1.73;1.10;;;;;;;5.39;100.00;100885.84;5011112;28;20443;-83
2022/09/20 02:07:47;;;;;;;1.73;1.00;;;;;;;5.35;100.00;100889.28;4996001;28;20030;-85
2022/09/20 02:10:31;;;;;;;1.87;1.00;;;;;;;5.34;100.00;100885.81;4990430;28;20421;-83
2022/09/20 02:13:03;;;;;;;1.30;1.10;;;;;;;5.31;100.00;100891.03;5013273;28;20061;-84
2022/09/20 02:16:12;;;;;;;4.10;1.33;;;;;;;5.24;100.00;100897.13;4981391;28;20048;-86
2022/09/20 02:19:15;;;;;;;1.67;1.10;;;;;;;5.25;100.00;100898.00;4950117;28;20070;-83
2022/09/20 02:21:51;;;;;;;2.27;1.17;;;;;;;5.18;100.00;100891.84;4973622;28;20129;-82
2022/09/20 02:24:28;;;;;;;1.37;0.83;;;;;;;5.21;100.00;100891.88;4981013;28;20380;-84
2022/09/20 02:27:28;;;;;;;2.97;1.10;;;;;;;5.18;100.00;100899.69;4999947;28;20058;-82
2022/09/20 02:30:03;;;;;;;2.03;1.30;;;;;;;5.19;100.00;100901.44;4999405;28;20050;-82
2022/09/20 02:32:50;;;;;;;1.17;1.00;;;;;;;5.18;100.00;100904.06;4998533;28;20046;-84
2022/09/20 02:35:31;;;;;;;2.77;1.30;;;;;;;5.15;100.00;100904.94;5018363;28;20050;-83
2022/09/20 02:38:10;;;;;;;1.63;0.90;;;;;;;5.07;100.00;100904.88;4995968;28;20042;-86
2022/09/20 02:40:56;;;;;;;1.37;1.00;;;;;;;5.18;100.00;100906.69;4979013;28;20052;-83
2022/09/20 02:44:00;;;;;;;2.97;1.20;;;;;;;5.14;100.00;100907.53;4996102;28;20045;-84
2022/09/20 02:46:33;;;;;;;1.42;0.90;;;;;;;5.05;100.00;100906.63;4979820;28;20072;-82
2022/09/20 02:49:06;;;;;;;1.90;1.10;;;;;;;5.02;100.00;100909.19;5013792;28;20062;-82
2022/09/20 02:51:42;;;;;;;1.58;1.23;;;;;;;4.93;100.00;100906.53;4979158;28;20054;-81
2022/09/20 02:54:36;;;;;;;1.90;1.00;;;;;;;4.83;100.00;100909.97;4996186;28;20093;-82
2022/09/20 02:57:35;;;;;;;0.97;0.87;;;;;;;4.80;100.00;100912.56;4978902;28;20046;-82
2022/09/20 03:00:09;;;;;;;1.20;1.10;;;;;;;4.75;100.00;100912.53;4996997;28;20292;-82
2022/09/20 03:02:50;;;;;;;1.33;0.93;;;;;;;4.76;100.00;100919.50;4978758;28;20050;-82
2022/09/20 03:05:29;;;;;;;1.07;0.83;;;;;;;4.82;100.00;100925.66;4992326;28;20054;-82
2022/09/20 03:08:17;;;;;;;2.03;0.90;;;;;;;4.75;100.00;100919.50;4994003;28;20039;-84
2022/09/20 03:10:51;;;;;;;1.17;0.80;;;;;;;4.72;100.00;100922.97;5009331;28;20088;-83
2022/09/20 03:13:43;;;;;;;2.35;1.13;;;;;;;4.70;100.00;100926.41;4995954;28;20045;-83
2022/09/20 03:16:25;;;;;;;2.20;0.97;;;;;;;4.69;100.00;100929.91;5014633;28;20396;-82
2022/09/20 03:19:36;;;;;;;1.70;1.17;;;;;;;4.68;100.00;100923.81;4977789;28;20077;-81
2022/09/20 03:22:25;;;;;;;3.90;1.40;;;;;;;4.66;100.00;100922.91;4991662;28;20067;-81
2022/09/20 03:25:10;;;;;;;1.70;0.93;;;;;;;4.65;100.00;100926.41;4992691;28;20550;-83
2022/09/20 03:27:41;;;;;;;2.10;1.13;;;;;;;4.70;100.00;100918.56;4976460;28;20042;-82
2022/09/20 03:30:22;;;;;;;2.20;1.00;;;;;;;4.71;100.00;100933.44;4987905;28;20050;-83
2022/09/20 03:33:18;;;;;;;1.70;1.10;;;;;;;4.67;100.00;100935.13;4979052;28;20037;-82
2022/09/20 03:36:09;;;;;;;2.30;1.30;;;;;;;4.65;100.00;100936.00;4959642;28;20716;-82
2022/09/20 03:38:56;;;;;;;2.50;1.20;;;;;;;4.64;100.00;100940.34;4996001;28;20046;-83
2022/09/20 03:41:41;;;;;;;1.30;1.10;;;;;;;4.69;100.00;100930.78;4983092;28;20241;-82
2022/09/20 03:44:42;;;;;;;3.33;1.90;;;;;;;4.68;100.00;100938.63;4994578;28;20053;-84
2022/09/20 03:47:27;;;;;;;2.73;1.63;;;;;;;4.64;100.00;100935.13;4977177;28;20042;-81
2022/09/20 03:50:26;;;;;;;3.30;1.40;;;;;;;4.64;100.00;100944.72;4978060;28;20047;-81
2022/09/20 03:53:00;;;;;;;2.67;1.57;;;;;;;4.66;100.00;100942.97;4976793;28;20050;-81
2022/09/20 03:55:48;;;;;;;2.03;1.13;;;;;;;4.62;100.00;100935.94;4977886;28;20042;-81
2022/09/20 03:58:26;;;;;;;2.27;1.10;;;;;;;4.66;100.00;100940.38;4982905;28;20057;-81
2022/09/20 04:01:02;;;;;;;1.47;1.33;;;;;;;4.64;100.00;100940.34;4979746;28;20108;-83
2022/09/20 04:03:37;;;;;;;1.70;0.80;;;;;;;4.64;100.00;100934.25;4986087;28;20050;-81
2022/09/20 04:06:16;;;;;;;2.73;0.97;;;;;;;4.61;100.00;100947.28;4980671;28;20045;-81
2022/09/20 04:09:20;;;;;;;2.20;1.03;;;;;;;4.69;100.00;100949.09;5030826;28;20045;-84
2022/09/20 04:12:02;;;;;;;2.00;0.95;;;;;;;4.66;100.00;100942.97;5032118;28;20041;-83
2022/09/20 04:14:53;;;;;;;1.53;1.10;;;;;;;4.51;100.00;100941.97;4997572;28;20122;-82
2022/09/20 04:17:45;;;;;;;3.33;1.40;;;;;;;4.58;100.00;100950.75;4993172;28;20050;-81
2022/09/20 04:20:28;;;;;;;4.13;1.00;;;;;;;4.46;100.00;100948.94;5001957;28;20048;-81
2022/09/20 04:22:57;;;;;;;2.30;0.97;;;;;;;4.49;100.00;100945.47;4997169;28;20434;-84
2022/09/20 04:25:37;;;;;;;1.73;1.00;;;;;;;4.53;100.00;100955.06;4992652;28;20535;-82
2022/09/20 04:28:16;;;;;;;1.50;0.83;;;;;;;4.45;100.00;100955.00;5013546;28;20038;-82
2022/09/20 04:30:43;;;;;;;2.15;1.10;;;;;;;4.43;100.00;100958.47;5018425;28;20049;-81
2022/09/20 04:33:34;;;;;;;1.60;1.20;;;;;;;4.47;100.00;100953.28;4981205;28;20038;-82
2022/09/20 04:36:45;;;;;;;2.83;1.00;;;;;;;4.46;100.00;100956.78;5009369;28;20057;-81
2022/09/20 04:39:33;;;;;;;2.33;1.43;;;;;;;4.43;100.00;100961.97;4980289;28;20042;-81
2022/09/20 04:42:28;;;;;;;1.00;0.83;;;;;;;4.32;100.00;100961.00;4980506;28;20050;-82
2022/09/20 04:45:17;;;;;;;2.63;1.00;;;;;;;4.27;100.00;100967.03;5006932;28;20049;-82
2022/09/20 04:48:08;;;;;;;4.17;1.33;;;;;;;4.33;100.00;100970.59;5007361;28;20129;-81
2022/09/20 04:50:41;;;;;;;3.60;1.60;;;;;;;4.34;100.00;100974.09;5015291;28;20406;-82
2022/09/20 04:53:33;;;;;;;2.87;1.50;;;;;;;4.34;100.00;100979.31;5000233;28;20124;-82
2022/09/20 04:56:20;;;;;;;1.93;1.20;;;;;;;4.31;100.00;100980.16;4999093;28;20281;-81
2022/09/20 04:59:09;;;;;;;3.27;1.00;;;;;;;4.20;100.00;100973.94;5012524;28;20384;-82
2022/09/20 05:02:06;;;;;;;3.00;1.17;;;;;;;4.19;100.00;100974.78;4994980;28;20506;-81
2022/09/20 05:04:55;;;;;;;2.27;1.33;;;;;;;4.27;100.00;100985.34;5012600;28;20041;-81
2022/09/20 05:07:29;;;;;;;1.37;1.17;;;;;;;4.24;100.00;100981.84;4998172;28;20046;-81
2022/09/20 05:10:14;;;;;;;13.30;1.50;;;;;;;4.18;100.00;100980.88;4989448;28;20096;-81
2022/09/20 05:13:16;;;;;;;1.87;1.10;;;;;;;4.17;100.00;100985.25;4995117;28;20293;-84
2022/09/20 05:15:59;;;;;;;2.20;1.07;;;;;;;4.20;100.00;100987.00;4998344;28;20109;-84
2022/09/20 05:18:51;;;;;;;1.60;1.03;;;;;;;4.27;100.00;100986.22;4967445;28;20042;-81
2022/09/20 05:22:05;;;;;;;1.70;1.07;;;;;;;4.26;100.00;100986.22;5003546;28;20080;-83
2022/09/20 05:24:51;;;;;;;1.27;0.93;;;;;;;4.27;100.00;100991.44;4979448;28;20054;-81
2022/09/20 05:27:35;;;;;;;1.57;0.90;;;;;;;4.31;100.00;100995.00;5006671;28;20038;-81
2022/09/20 05:30:11;;;;;;;1.67;1.00;;;;;;;4.35;100.00;100997.63;5011758;28;20045;-86
2022/09/20 05:32:47;;;;;;;1.60;1.03;;;;;;;4.30;100.00;101001.09;5002678;28;20429;-81
2022/09/20 05:35:25;;;;;;;1.20;0.90;;;;;;;4.41;100.00;101005.56;5007566;28;20045;-82
2022/09/20 05:38:24;;;;;;;1.97;0.87;;;;;;;4.47;100.00;101005.63;4997504;28;20048;-80
2022/09/20 05:41:07;;;;;;;2.27;1.00;;;;;;;4.42;100.00;101015.16;4988143;28;20046;-80
2022/09/20 05:43:39;;;;;;;1.70;1.10;;;;;;;4.47;100.00;101016.09;4989085;28;20499;-79
2022/09/20 05:46:22;;;;;;;1.90;0.97;;;;;;;4.44;100.00;101013.41;4977977;28;20578;-83
2022/09/20 05:48:52;;;;;;;1.03;0.77;;;;;;;4.46;100.00;101008.22;4980484;28;20057;-81
2022/09/20 05:51:44;;;;;;;1.10;0.90;;;;;;;4.47;100.00;101016.09;5008080;28;20458;-81
2022/09/20 05:54:26;;;;;;;1.30;1.10;;;;;;;4.54;100.00;101014.41;5000188;28;20037;-80
2022/09/20 05:57:18;;;;;;;1.80;1.20;;;;;;;4.55;100.00;101010.06;4997685;28;20038;-80
2022/09/20 05:59:57;;;;;;;1.50;1.03;;;;;;;4.64;100.00;101025.84;4998979;28;20054;-80
2022/09/20 06:02:24;;;;;;;2.17;1.17;;;;;;;4.70;100.00;101020.66;4995642;28;20076;-84
2022/09/20 06:05:11;;;;;;;2.20;1.00;;;;;;;4.78;100.00;101030.31;4994265;28;20038;-81
2022/09/20 06:08:11;;;;;;;1.83;1.37;;;;;;;4.90;100.00;101026.94;5099660;23;20040;-82
2022/09/20 06:10:57;;;;;;;1.77;1.10;;;;;;;5.04;100.00;101033.19;5012321;28;20104;-80
2022/09/20 06:14:00;;;;;;;2.30;1.20;;;;;;;5.15;100.00;101028.03;5012010;28;20064;-81
2022/09/20 06:16:37;;;;;;;1.77;1.37;;;;;;;5.32;100.00;101036.00;4992449;28;20053;-80
2022/09/20 06:19:14;;;;;;;2.97;1.33;;;;;;;5.55;100.00;101031.78;4979733;28;20052;-80
2022/09/20 06:21:52;;;;;;;2.53;1.50;;;;;;;5.71;100.00;101039.72;4961002;28;20053;-82
2022/09/20 06:24:32;;;;;;;1.10;1.00;;;;;;;5.83;100.00;101034.56;4985892;28;20081;-81
2022/09/20 06:27:02;;;;;;;2.13;1.30;;;;;;;5.93;100.00;101032.00;4981578;28;20399;-82
2022/09/20 06:29:32;;;;;;;1.93;1.10;;;;;;;6.03;100.00;101032.03;4978722;28;20041;-82
2022/09/20 06:31:58;;;;;;;2.53;1.60;;;;;;;6.16;100.00;101036.47;4985819;28;20042;-83
2022/09/20 06:34:27;;;;;;;2.10;1.40;;;;;;;6.44;100.00;101034.81;4991008;28;20049;-82
2022/09/20 06:42:32;;;;;;;2.90;1.80;;;;;;;6.98;100.00;101038.38;4997242;28;20044;-81
2022/09/20 06:44:59;;;;;;;2.93;1.60;;;;;;;7.28;100.00;101046.25;4976571;28;20074;-82
2022/09/20 06:47:25;;;;;;;2.67;1.70;;;;;;;7.82;100.00;101041.78;4982452;28;20667;-80
2022/09/20 06:49:52;;;;;;;1.73;1.30;;;;;;;8.54;100.00;101038.81;5011194;28;20041;-79
2022/09/20 06:52:21;;;;;;;1.85;1.30;;;;;;;9.19;100.00;101044.50;5033689;28;20045;-79
2022/09/20 06:54:52;;;;;;;1.75;1.38;;;;;;;9.64;100.00;101039.66;4984504;28;20052;-80
2022/09/20 06:57:37;;;;;;;2.35;1.50;;;;;;;10.02;100.00;101029.56;4978396;28;20038;-79
2022/09/20 07:00:05;;;;;;;2.88;1.20;;;;;;;10.43;100.00;101031.69;4981971;28;20061;-87
2022/09/20 07:02:32;;;;;;;2.05;1.20;;;;;;;10.65;100.00;101034.88;4983227;28;20045;-87
2022/09/20 07:04:59;;;;;;;1.30;0.90;;;;;;;10.89;100.00;101036.28;4984603;28;20040;-88
2022/09/20 07:07:26;;;;;;;2.25;1.25;;;;;;;11.08;100.00;101042.16;4977390;28;20041;-87
2022/09/20 07:09:53;;;;;;;1.42;1.10;;;;;;;11.32;100.00;101047.94;4984606;28;20041;-89
2022/09/20 07:12:20;;;;;;;1.60;1.10;;;;;;;11.06;100.00;101049.22;4998720;28;20040;-89
2022/09/20 07:14:46;;;;;;;2.25;1.30;;;;;;;11.19;100.00;101047.28;4977650;28;20038;-88
2022/09/20 07:17:13;;;;;;;2.80;1.23;;;;;;;11.03;100.00;101045.78;4981932;28;20033;-89
2022/09/20 07:19:40;;;;;;;4.40;1.10;;;;;;;10.87;100.00;101051.31;4998831;28;20037;-86
2022/09/20 07:22:07;;;;;;;2.55;1.23;;;;;;;10.84;100.00;101053.09;4985371;28;20048;-88
2022/09/20 07:24:33;;;;;;;1.90;1.23;;;;;;;10.82;100.00;101047.84;4996796;28;20052;-89
2022/09/20 07:27:01;;;;;;;2.97;1.50;;;;;;;10.88;100.00;101055.69;4994170;28;20049;-90
2022/09/20 07:29:28;;;;;;;1.95;1.20;;;;;;;10.89;100.00;101059.19;4980110;28;20080;-89
2022/09/20 07:31:56;;;;;;;1.45;0.93;;;;;;;10.90;100.00;101053.00;5011288;28;20044;-88
2022/09/20 07:34:23;;;;;;;2.65;1.15;;;;;;;11.21;100.00;101059.56;4983278;28;20049;-87
2022/09/20 07:36:50;;;;;;;2.60;1.10;;;;;;;11.24;100.00;101066.56;4996856;28;20050;-88
2022/09/20 07:39:17;;;;;;;2.63;1.40;;;;;;;11.20;100.00;101065.75;4974851;28;20045;-87
2022/09/20 07:41:49;;;;;;;1.30;1.00;;;;;;;11.30;100.00;101076.19;4978137;28;20042;-89
2022/09/20 07:44:20;;;;;;;3.75;1.35;;;;;;;11.32;100.00;101071.72;4973571;28;20069;-89
2022/09/20 07:46:56;;;;;;;1.67;1.00;;;;;;;11.25;100.00;101077.13;4981843;28;20057;-88
2022/09/20 07:49:25;;;;;;;2.08;1.00;;;;;;;11.28;100.00;101076.22;4996159;28;20136;-89
2022/09/20 07:51:52;;;;;;;1.50;1.10;;;;;;;11.25;100.00;101076.25;4981679;28;20048;-89
2022/09/20 07:54:19;;;;;;;2.67;1.42;;;;;;;11.39;100.00;101076.91;4976277;28;20045;-89
2022/09/20 07:56:46;;;;;;;0.82;0.70;;;;;;;11.49;100.00;101078.47;4998249;28;20161;-88
2022/09/20 07:59:14;;;;;;;2.15;1.15;;;;;;;11.47;100.00;101077.63;4986341;28;20129;-90
2022/09/20 08:01:41;;;;;;;0.90;0.60;;;;;;;11.49;100.00;101082.91;4985746;28;20037;-90
2022/09/20 08:04:09;;;;;;;4.05;1.10;;;;;;;11.51;100.00;101086.38;5000324;28;20049;-90
2022/09/20 08:06:41;;;;;;;6.07;1.00;;;;;;;11.48;100.00;101084.66;4994979;28;20048;-90
2022/09/20 08:09:08;;;;;;;3.33;1.10;;;;;;;11.50;100.00;101088.16;4975646;28;20782;-89
2022/09/20 08:11:38;;;;;;;1.92;0.70;;;;;;;11.69;100.00;101095.78;5001825;28;20041;-90
2022/09/20 08:14:06;;;;;;;1.52;0.85;;;;;;;11.52;100.00;101090.81;4994074;28;20490;-89
2022/09/20 08:16:57;;;;;;;1.10;0.80;;;;;;;11.70;100.00;101097.53;4984758;28;20041;-91
2022/09/20 08:19:41;;;;;;;1.00;0.90;;;;;;;11.68;100.00;101096.66;4988802;28;20068;-91
2022/09/20 09:56:36;;;;;;;1.73;0.60;;;;;;;14.92;79.96;101121.53;5068684;28;20048;-90
2022/09/20 09:59:24;;;;;;;1.77;0.60;;;;;;;15.27;82.86;101119.53;5027740;28;20095;-88
2022/09/20 10:02:11;;;;;;;1.15;0.40;;;;;;;15.41;80.75;101109.31;5039326;28;20043;-91
2022/09/20 10:04:51;;;;;;;1.13;1.00;;;;;;;15.84;77.33;101111.41;5043786;28;20048;-89
2022/09/20 10:07:39;;;;;;;0.77;0.60;;;;;;;15.59;77.96;101119.34;5033033;28;20040;-93
2022/09/20 10:10:33;;;;;;;1.77;0.55;;;;;;;15.81;77.58;101119.53;5030719;28;20037;-88
2022/09/20 10:13:10;;;;;;;1.23;1.13;;;;;;;15.56;79.09;101114.13;5053026;28;20052;-87
2022/09/20 10:16:08;;;;;;;0.65;0.55;;;;;;;15.75;82.43;101117.94;5051219;28;20068;-86
2022/09/20 10:18:50;;;;;;;1.20;0.50;;;;;;;15.69;78.78;101118.13;5032604;28;20076;-88
2022/09/20 10:21:57;;;;;;;0.88;0.40;;;;;;;15.33;73.86;101127.34;5032463;28;20090;-89
2022/09/20 10:24:29;;;;;;;0.85;0.40;;;;;;;15.10;79.49;101120.09;5087346;28;20051;-88
2022/09/20 10:27:13;;;;;;;1.02;0.65;;;;;;;14.88;80.37;101136.72;5072359;28;20409;-90
2022/09/20 10:30:17;;;;;;;0.82;0.35;;;;;;;15.18;79.04;101124.25;5035741;28;20521;-86
2022/09/20 10:33:25;;;;;;;0.75;0.50;;;;;;;15.65;75.70;101123.63;5042857;28;20094;-88
2022/09/20 10:36:00;;;;;;;0.70;0.40;;;;;;;16.07;75.87;101120.41;4995412;28;20057;-89
2022/09/20 10:38:45;;;;;;;0.63;0.57;;;;;;;16.01;70.18;101121.47;4990014;28;20165;-88
2022/09/20 10:44:17;;;;;;;0.50;0.22;;;;;;;15.64;71.59;101128.09;5048306;28;20127;-89
2022/09/20 10:46:54;;;;;;;0.82;0.30;;;;;;;15.29;76.03;101123.88;5046811;28;20400;-87
2022/09/20 10:49:47;;;;;;;1.33;0.60;;;;;;;15.14;75.25;101132.38;5051748;28;20078;-88
2022/09/20 10:52:22;;;;;;;0.50;0.40;;;;;;;15.10;79.75;101120.94;5041396;28;20048;-88
2022/09/20 10:54:55;;;;;;;0.95;0.40;;;;;;;14.82;77.95;101134.25;5052904;28;20052;-92
2022/09/20 10:58:00;;;;;;;1.25;0.50;;;;;;;14.67;78.63;101132.03;5033165;28;20040;-89
2022/09/20 11:00:41;;;;;;;1.85;0.68;;;;;;;14.62;82.57;101132.16;5054745;28;20041;-90
2022/09/20 11:03:25;;;;;;;1.70;0.55;;;;;;;14.92;81.33;101126.84;5036582;28;20048;-87
2022/09/20 11:06:25;;;;;;;1.08;0.55;;;;;;;15.21;77.90;101133.91;5034457;28;20787;-88
2022/09/20 11:08:55;;;;;;;2.13;0.70;;;;;;;15.40;80.71;101136.88;5037428;28;20037;-90
2022/09/20 11:11:28;;;;;;;1.23;0.50;;;;;;;15.34;87.36;101145.91;5037321;28;20041;-90
2022/09/20 11:14:13;;;;;;;3.00;0.55;;;;;;;15.03;90.21;101147.81;5037571;28;20075;-90
2022/09/20 11:16:59;;;;;;;2.47;0.50;;;;;;;14.80;95.87;101145.88;5038218;28;20044;-90
2022/09/20 11:19:49;;;;;;;0.80;0.80;;;;;;;14.49;100.00;101152.06;5038922;28;20037;-90
2022/09/20 11:22:39;;;;;;;3.65;1.08;;;;;;;14.18;100.00;101153.81;5024429;28;20080;-90
2022/09/20 11:25:17;;;;;;;0.75;0.52;;;;;;;14.21;100.00;101157.28;5039636;28;20043;-90
2022/09/20 11:27:52;;;;;;;7.15;3.97;;;;;;;14.58;100.00;101164.22;5024072;28;20041;-90
2022/09/20 11:30:20;;;;;;;1.63;0.70;;;;;;;14.91;100.00;101162.38;5051916;28;20155;-91
2022/09/20 11:33:07;;;;;;;16.83;15.10;;;;;;;14.81;100.00;101163.56;5042502;28;20045;-90
2022/09/20 11:35:52;;;;;;;3.17;2.95;;;;;;;14.58;100.00;101169.56;5042207;28;20044;-91
2022/09/20 11:38:36;;;;;;;4.53;4.18;;;;;;;14.43;100.00;101178.78;5047708;28;20509;-92
2022/09/20 11:41:14;;;;;;;3.85;1.17;;;;;;;14.19;100.00;101183.00;5057830;28;20048;-91
2022/09/20 11:43:43;;;;;;;1.83;0.75;;;;;;;13.97;99.87;101176.53;5044848;28;20044;-92
2022/09/20 11:46:16;;;;;;;1.13;0.90;;;;;;;13.80;100.00;101188.47;5056022;28;20040;-93
2022/09/20 11:49:01;;;;;;;2.60;1.20;;;;;;;13.70;98.82;101186.91;5068457;28;20036;-90
2022/09/20 11:51:35;;;;;;;4.80;3.67;;;;;;;13.61;100.00;101180.97;5041568;28;20041;-90
2022/09/20 11:54:18;;;;;;;7.10;5.65;;;;;;;13.79;100.00;101188.50;5060491;28;20111;-92
2022/09/20 11:56:52;;;;;;;277.05;180.80;;;;;;;14.24;100.00;101202.34;5045255;28;20044;-95
2022/09/20 11:59:39;;;;;;;85.72;55.00;;;;;;;14.55;100.00;101197.09;5049451;28;20048;-93
2022/09/20 12:02:33;;;;;;;6.82;4.88;;;;;;;14.37;100.00;101210.84;5061909;28;20051;-92
2022/09/20 12:05:01;;;;;;;29.00;18.45;;;;;;;14.16;97.33;101214.09;5062761;28;20078;-92
2022/09/20 12:27:58;;;;;;;2.40;0.90;;;;;;;12.84;100.00;101206.56;5034712;28;20041;-80
2022/09/20 12:30:25;;;;;;;1.52;0.70;;;;;;;12.76;100.00;101218.25;5015144;28;20046;-80
2022/09/20 12:32:57;;;;;;;0.93;0.40;;;;;;;12.83;100.00;101215.44;5015003;28;20546;-81
2022/09/20 12:35:37;;;;;;;0.93;0.70;;;;;;;12.72;100.00;101214.78;4991446;28;20046;-83
2022/09/20 12:38:19;;;;;;;3.90;2.38;;;;;;;12.93;100.00;101216.97;5007369;28;20101;-81
2022/09/20 12:41:05;;;;;;;1.58;1.48;;;;;;;13.23;100.00;101210.16;5007613;28;20095;-81
2022/09/20 12:43:33;;;;;;;3.38;1.55;;;;;;;13.58;100.00;101212.91;5013109;28;20078;-81
2022/09/20 12:46:00;;;;;;;1.65;0.90;;;;;;;13.64;100.00;101213.66;4995590;28;20042;-81
2022/09/20 12:48:35;;;;;;;1.08;0.85;;;;;;;13.84;100.00;101210.47;5014584;28;20068;-81
2022/09/20 12:54:09;;;;;;;1.25;0.30;;;;;;;13.80;94.94;101227.44;4990188;28;20041;-81
2022/09/20 12:56:39;;;;;;;2.08;0.40;;;;;;;14.03;94.61;101230.34;4979610;28;20038;-82
2022/09/20 12:59:22;;;;;;;0.50;0.40;;;;;;;13.94;90.87;101235.91;5003128;28;20046;-79
2022/09/20 13:01:49;;;;;;;1.20;0.30;;;;;;;13.77;90.45;101222.16;4969524;28;20112;-82
2022/09/20 13:04:54;;;;;;;2.20;1.10;;;;;;;13.58;88.34;101227.06;4991765;28;20057;-81
2022/09/20 13:07:39;;;;;;;0.90;0.70;;;;;;;14.30;89.58;101230.56;4998228;28;20061;-81
2022/09/20 13:10:19;;;;;;;0.95;0.50;;;;;;;14.67;87.73;101226.91;4997723;28;20041;-81
2022/09/20 13:12:46;;;;;;;0.65;0.45;;;;;;;14.66;84.44;101220.72;4994379;28;20045;-82
2022/09/20 13:15:20;;;;;;;1.73;1.33;;;;;;;14.82;88.82;101229.16;5014237;28;20045;-82
2022/09/20 13:17:50;;;;;;;0.40;0.40;;;;;;;14.77;90.23;101228.38;4997071;28;20042;-81
2022/09/20 13:20:24;;;;;;;2.25;0.52;;;;;;;14.80;88.73;101231.84;4998948;28;20037;-82
2022/09/20 13:22:52;;;;;;;0.40;0.40;;;;;;;14.72;88.80;101240.97;4997361;28;20042;-83
2022/09/20 13:25:25;;;;;;;2.92;2.00;;;;;;;14.47;92.71;101244.31;4983607;28;20050;-84
2022/09/20 13:28:06;;;;;;;1.83;0.50;;;;;;;14.23;91.61;101247.59;4996182;28;20064;-83
2022/09/20 13:30:34;;;;;;;1.08;0.50;;;;;;;13.93;90.65;101247.44;4992608;28;20038;-83
2022/09/20 13:33:21;;;;;;;1.23;0.50;;;;;;;13.77;89.98;101252.25;4997807;28;20045;-83
2022/09/20 13:35:51;;;;;;;0.70;0.50;;;;;;;13.65;90.46;101251.69;4993411;28;20108;-83
2022/09/20 13:38:23;;;;;;;1.00;0.60;;;;;;;13.44;90.85;101250.38;4974861;28;20038;-84
2022/09/20 13:40:51;;;;;;;0.88;0.60;;;;;;;13.38;91.47;101255.84;4996222;28;20080;-83
2022/09/20 13:43:28;;;;;;;0.60;0.60;;;;;;;13.19;96.75;101260.63;4978945;28;20042;-83
2022/09/20 13:46:17;;;;;;;0.55;0.50;;;;;;;12.96;96.84;101266.44;4996384;28;20042;-83
2022/09/20 13:48:51;;;;;;;0.77;0.60;;;;;;;12.92;96.19;101272.72;5000061;28;20049;-83
2022/09/20 13:51:19;;;;;;;;;;;;;;;12.60;100.00;101273.34;4993158;28;20080;-83
2022/09/20 13:53:46;;;;;;;1.02;0.93;;;;;;;12.46;100.00;101264.78;4995732;28;20409;-84
2022/09/20 13:56:28;;;;;;;0.50;0.50;;;;;;;12.27;100.00;101285.41;4977862;28;20048;-83
2022/09/20 13:58:57;;;;;;;2.30;0.52;;;;;;;12.22;100.00;101284.66;4995415;28;20046;-84
2022/09/20 14:01:29;;;;;;;0.40;0.40;;;;;;;12.20;100.00;101287.31;4994169;28;20046;-84
2022/09/20 14:04:03;;;;;;;2.25;0.60;;;;;;;12.14;100.00;101289.19;4995667;28;20088;-84
2022/09/20 14:06:30;;;;;;;0.95;0.60;;;;;;;11.97;100.00;101287.69;5009639;28;20053;-84
2022/09/20 14:08:58;;;;;;;1.85;0.90;;;;;;;11.93;100.00;101285.13;4997543;28;20049;-82
2022/09/20 14:11:28;;;;;;;1.13;0.73;;;;;;;11.96;100.00;101285.09;4977826;28;20465;-83
2022/09/20 14:14:00;;;;;;;0.82;0.75;;;;;;;11.77;100.00;101281.78;4988991;28;20042;-82
2022/09/20 14:16:29;;;;;;;0.77;0.70;;;;;;;11.71;100.00;101276.63;4957615;28;20096;-83
2022/09/20 14:18:57;;;;;;;3.30;0.70;;;;;;;11.73;100.00;101283.63;4959334;28;20042;-82
2022/09/20 14:21:26;;;;;;;1.35;0.70;;;;;;;11.89;100.00;101275.50;4970997;28;20112;-83
2022/09/20 14:24:01;;;;;;;1.50;1.13;;;;;;;11.93;100.00;101277.16;4978401;28;20399;-81